createdAt,value
2022-12-24T00:01:35.448Z,2.25
2022-12-24T00:04:03.624Z,1.92
2022-12-24T00:06:31.746Z,2.35
2022-12-24T00:09:00.134Z,2.25
2022-12-24T00:11:28.238Z,1.92
2022-12-24T00:13:57.816Z,2.45
2022-12-24T00:16:26.053Z,2.08
2022-12-24T00:18:54.897Z,2.28
2022-12-24T00:21:23.031Z,2.50
2022-12-24T00:23:51.151Z,1.83
2022-12-24T00:26:19.287Z,2.22
2022-12-24T00:28:47.512Z,2.33
2022-12-24T00:31:19.267Z,2.08
2022-12-24T00:33:48.128Z,2.00
2022-12-24T00:36:16.568Z,1.83
2022-12-24T00:38:45.539Z,2.05
2022-12-24T00:41:25.839Z,1.77
2022-12-24T00:43:55.807Z,2.28
2022-12-24T00:46:26.140Z,1.90
2022-12-24T00:48:54.419Z,2.15
2022-12-24T00:51:23.168Z,1.88
2022-12-24T00:53:51.551Z,1.92
2022-12-24T00:56:20.105Z,2.60
2022-12-24T00:58:48.300Z,2.42
2022-12-24T01:01:16.980Z,2.60
2022-12-24T01:03:46.624Z,2.45
2022-12-24T01:06:15.913Z,2.03
2022-12-24T01:08:44.569Z,1.92
2022-12-24T01:11:14.224Z,2.15
2022-12-24T01:13:42.347Z,2.08
2022-12-24T01:16:16.512Z,1.90
2022-12-24T01:18:46.117Z,2.30
2022-12-24T01:21:14.351Z,1.92
2022-12-24T01:23:42.461Z,1.90
2022-12-24T01:26:12.665Z,1.98
2022-12-24T01:28:41.080Z,1.60
2022-12-24T01:31:13.732Z,2.28
2022-12-24T01:33:42.155Z,2.28
2022-12-24T01:36:12.946Z,1.55
2022-12-24T01:38:41.345Z,2.00
2022-12-24T01:41:32.282Z,2.13
2022-12-24T01:44:00.369Z,2.10
2022-12-24T01:46:31.915Z,2.55
2022-12-24T01:49:03.045Z,1.75
2022-12-24T01:51:36.915Z,2.03
2022-12-24T01:54:08.741Z,1.90
2022-12-24T01:56:41.310Z,1.80
2022-12-24T01:59:15.884Z,1.95
2022-12-24T02:01:44.189Z,1.65
2022-12-24T02:04:15.275Z,2.33
2022-12-24T02:06:44.882Z,1.88
2022-12-24T02:09:13.095Z,2.42
2022-12-24T02:11:44.718Z,1.75
2022-12-24T02:14:14.923Z,2.05
2022-12-24T02:16:51.327Z,1.95
2022-12-24T02:19:43.229Z,1.98
2022-12-24T02:22:17.052Z,1.95
2022-12-24T02:25:10.900Z,2.10
2022-12-24T02:27:52.809Z,1.95
2022-12-24T02:30:24.510Z,2.08
2022-12-24T02:33:21.269Z,1.83
2022-12-24T02:35:52.860Z,1.60
2022-12-24T02:38:27.426Z,1.63
2022-12-24T02:41:00.338Z,2.13
2022-12-24T02:43:33.964Z,1.85
2022-12-24T02:46:08.448Z,1.60
2022-12-24T02:48:39.045Z,2.28
2022-12-24T02:51:09.805Z,2.03
2022-12-24T02:53:39.088Z,1.55
2022-12-24T02:56:35.964Z,2.10
2022-12-24T02:59:41.407Z,2.05
2022-12-24T03:02:24.312Z,1.85
2022-12-24T03:05:01.108Z,1.63
2022-12-24T03:07:33.806Z,1.98
2022-12-24T03:10:19.621Z,1.95
2022-12-24T03:12:51.055Z,1.80
2022-12-24T03:15:21.445Z,2.08
2022-12-24T03:17:53.566Z,1.95
2022-12-24T03:20:24.564Z,1.88
2022-12-24T03:22:52.898Z,1.98
2022-12-24T03:25:23.990Z,1.90
2022-12-24T03:27:52.677Z,1.70
2022-12-24T03:30:22.168Z,1.88
2022-12-24T03:32:51.862Z,2.47
2022-12-24T03:35:20.156Z,2.38
2022-12-24T03:37:48.334Z,2.15
2022-12-24T03:40:16.445Z,2.50
2022-12-24T03:42:44.732Z,2.40
2022-12-24T03:45:12.897Z,1.90
2022-12-24T03:47:41.051Z,2.03
2022-12-24T03:50:11.130Z,2.08
2022-12-24T03:55:07.547Z,1.70
2022-12-24T03:57:35.672Z,1.95
2022-12-24T04:00:04.794Z,2.08
2022-12-24T04:02:33.269Z,2.53
2022-12-24T04:05:01.466Z,2.30
2022-12-24T04:07:30.983Z,2.08
2022-12-24T04:09:59.075Z,2.05
2022-12-24T04:12:27.282Z,2.03
2022-12-24T04:14:55.355Z,2.30
2022-12-24T04:17:23.470Z,1.80
2022-12-24T04:19:51.548Z,1.40
2022-12-24T04:22:19.683Z,1.80
2022-12-24T04:24:49.161Z,2.00
2022-12-24T04:27:18.253Z,2.55
2022-12-24T04:29:46.337Z,1.75
2022-12-24T04:32:14.468Z,2.50
2022-12-24T04:34:42.637Z,1.90
2022-12-24T04:37:10.717Z,1.75
2022-12-24T04:39:38.964Z,2.15
2022-12-24T04:42:08.441Z,2.25
2022-12-24T04:44:36.558Z,1.58
2022-12-24T04:47:04.671Z,2.03
2022-12-24T04:49:33.096Z,1.55
2022-12-24T04:52:01.183Z,1.50
2022-12-24T04:54:29.430Z,1.75
2022-12-24T04:56:57.518Z,1.77
2022-12-24T04:59:28.606Z,2.15
2022-12-24T05:01:56.870Z,1.90
2022-12-24T05:04:25.071Z,1.90
2022-12-24T05:06:53.154Z,1.88
2022-12-24T05:09:21.265Z,2.40
2022-12-24T05:11:49.350Z,1.90
2022-12-24T05:14:17.499Z,1.73
2022-12-24T05:16:47.127Z,2.20
2022-12-24T05:19:15.291Z,1.70
2022-12-24T05:21:43.428Z,1.70
2022-12-24T05:24:30.012Z,1.60
2022-12-24T05:26:59.450Z,1.55
2022-12-24T05:29:27.547Z,1.48
2022-12-24T05:31:56.998Z,1.75
2022-12-24T05:34:25.966Z,2.05
2022-12-24T05:36:54.079Z,1.52
2022-12-24T05:39:22.304Z,1.63
2022-12-24T05:41:50.441Z,1.40
2022-12-24T05:44:18.619Z,1.60
2022-12-24T05:46:47.016Z,1.70
2022-12-24T05:49:16.562Z,1.70
2022-12-24T05:51:44.635Z,1.67
2022-12-24T05:54:13.007Z,1.60
2022-12-24T05:56:41.153Z,1.95
2022-12-24T05:59:09.294Z,1.70
2022-12-24T06:01:40.811Z,2.20
2022-12-24T06:04:09.123Z,1.42
2022-12-24T06:06:38.607Z,2.00
2022-12-24T06:09:06.740Z,1.90
2022-12-24T06:11:34.854Z,1.40
2022-12-24T06:14:03.029Z,1.75
2022-12-24T06:16:40.242Z,1.67
2022-12-24T06:19:15.793Z,1.50
2022-12-24T06:21:45.587Z,1.52
2022-12-24T06:24:13.706Z,1.92
2022-12-24T06:26:41.980Z,3.00
2022-12-24T06:29:16.547Z,2.97
2022-12-24T06:32:01.007Z,2.35
2022-12-24T06:34:39.867Z,2.92
2022-12-24T06:37:41.977Z,2.58
2022-12-24T06:40:11.271Z,2.47
2022-12-24T06:42:39.366Z,2.00
2022-12-24T06:45:08.942Z,1.80
2022-12-24T06:47:37.388Z,2.60
2022-12-24T06:50:06.373Z,1.83
2022-12-24T06:52:36.662Z,2.30
2022-12-24T06:55:05.251Z,2.20
2022-12-24T06:57:33.392Z,2.70
2022-12-24T07:00:01.917Z,2.40
2022-12-24T07:02:30.276Z,2.33
2022-12-24T07:04:58.480Z,2.10
2022-12-24T07:07:26.602Z,2.45
2022-12-24T07:09:57.423Z,3.70
2022-12-24T07:12:25.589Z,3.92
2022-12-24T07:14:53.677Z,3.63
2022-12-24T07:17:21.965Z,4.03
2022-12-24T07:19:50.284Z,3.80
2022-12-24T07:22:18.387Z,4.20
2022-12-24T07:24:46.510Z,4.07
2022-12-24T07:27:16.203Z,3.85
2022-12-24T07:29:44.456Z,4.53
2022-12-24T07:32:12.707Z,3.65
2022-12-24T07:34:40.820Z,3.53
2022-12-24T07:37:09.192Z,3.70
2022-12-24T07:39:37.465Z,3.92
2022-12-24T07:42:08.181Z,3.97
2022-12-24T07:44:37.810Z,3.65
2022-12-24T07:47:06.110Z,2.97
2022-12-24T07:49:34.998Z,3.13
2022-12-24T07:52:03.186Z,3.65
2022-12-24T07:54:31.388Z,3.05
2022-12-24T07:56:59.519Z,4.57
2022-12-24T07:59:27.679Z,2.72
2022-12-24T08:01:57.741Z,3.17
2022-12-24T08:04:26.154Z,3.00
2022-12-24T08:06:54.290Z,2.92
2022-12-24T08:09:22.731Z,3.05
2022-12-24T08:11:52.513Z,3.75
2022-12-24T08:16:48.902Z,3.15
2022-12-24T08:19:19.476Z,3.25
2022-12-24T08:21:47.649Z,2.70
2022-12-24T08:24:15.739Z,2.80
2022-12-24T08:26:43.996Z,2.15
2022-12-24T08:29:12.136Z,2.97
2022-12-24T08:31:40.306Z,2.22
2022-12-24T08:34:09.520Z,2.97
2022-12-24T08:36:40.029Z,2.90
2022-12-24T08:39:08.979Z,2.67
2022-12-24T08:41:37.307Z,3.08
2022-12-24T08:44:05.688Z,2.75
2022-12-24T08:46:33.925Z,2.60
2022-12-24T08:49:02.021Z,2.45
2022-12-24T08:51:30.882Z,3.13
2022-12-24T08:54:00.404Z,2.67
2022-12-24T08:56:28.527Z,2.25
2022-12-24T08:58:56.609Z,2.17
2022-12-24T09:01:25.772Z,3.35
2022-12-24T09:03:53.931Z,2.53
2022-12-24T09:06:22.055Z,2.10
2022-12-24T09:08:50.207Z,2.42
2022-12-24T09:11:20.570Z,2.22
2022-12-24T09:13:48.644Z,2.55
2022-12-24T09:16:17.249Z,2.50
2022-12-24T09:18:45.365Z,2.67
2022-12-24T09:21:15.510Z,2.30
2022-12-24T09:23:45.847Z,2.20
2022-12-24T09:26:17.402Z,2.13
2022-12-24T09:28:47.116Z,2.38
2022-12-24T09:31:15.623Z,2.20
2022-12-24T09:33:45.466Z,2.40
2022-12-24T09:36:14.533Z,2.63
2022-12-24T09:38:42.878Z,2.43
2022-12-24T09:41:15.689Z,2.15
2022-12-24T09:43:50.087Z,2.30
2022-12-24T09:46:24.262Z,1.92
2022-12-24T09:48:55.853Z,2.60
2022-12-24T09:51:30.871Z,2.50
2022-12-24T09:54:03.576Z,2.70
2022-12-24T09:56:35.557Z,2.53
2022-12-24T09:59:07.445Z,2.15
2022-12-24T10:01:41.360Z,2.67
2022-12-24T10:04:17.967Z,2.45
2022-12-24T10:06:53.111Z,1.98
2022-12-24T10:09:30.940Z,2.38
2022-12-24T10:12:10.401Z,2.30
2022-12-24T10:14:59.793Z,2.47
2022-12-24T10:17:38.164Z,2.65
2022-12-24T10:20:26.687Z,3.20
2022-12-24T10:23:00.488Z,3.20
2022-12-24T10:25:35.332Z,2.65
2022-12-24T10:28:09.956Z,3.03
2022-12-24T10:30:39.527Z,2.75
2022-12-24T10:33:17.942Z,2.25
2022-12-24T10:35:50.126Z,2.95
2022-12-24T10:38:18.309Z,2.03
2022-12-24T10:40:49.446Z,2.65
2022-12-24T10:43:19.961Z,2.90
2022-12-24T10:45:52.690Z,2.38
2022-12-24T10:48:26.873Z,2.95
2022-12-24T10:51:00.234Z,2.40
2022-12-24T10:53:37.966Z,2.80
2022-12-24T10:56:09.462Z,2.60
2022-12-24T10:58:38.946Z,2.90
2022-12-24T11:01:08.654Z,2.40
2022-12-24T11:03:38.124Z,3.10
2022-12-24T11:06:09.747Z,2.45
2022-12-24T11:08:40.983Z,2.70
2022-12-24T11:11:12.305Z,2.78
2022-12-24T11:13:44.481Z,3.17
2022-12-24T11:16:20.704Z,2.75
2022-12-24T11:18:52.277Z,3.17
2022-12-24T11:21:25.895Z,3.03
2022-12-24T11:23:57.717Z,3.65
2022-12-24T11:26:28.628Z,2.88
2022-12-24T11:29:16.007Z,3.10
2022-12-24T11:31:47.061Z,3.10
2022-12-24T11:34:26.722Z,2.50
2022-12-24T11:36:56.048Z,3.63
2022-12-24T11:39:27.143Z,5.07
2022-12-24T11:44:27.765Z,4.53
2022-12-24T11:46:58.610Z,5.40
2022-12-24T11:49:29.395Z,4.82
2022-12-24T11:52:20.804Z,4.57
2022-12-24T11:55:15.454Z,4.60
2022-12-24T11:57:52.488Z,4.45
2022-12-24T12:00:20.881Z,4.15
2022-12-24T12:02:52.871Z,3.58
2022-12-24T12:05:24.882Z,4.00
2022-12-24T12:07:56.111Z,5.38
2022-12-24T12:10:27.040Z,4.40
2022-12-24T12:13:01.794Z,5.13
2022-12-24T12:15:34.837Z,4.18
2022-12-24T12:18:10.518Z,4.55
2022-12-24T12:20:42.590Z,4.35
2022-12-24T12:23:17.612Z,4.22
2022-12-24T12:25:51.225Z,3.90
2022-12-24T12:28:23.303Z,4.13
2022-12-24T12:31:02.266Z,3.88
2022-12-24T12:33:39.078Z,4.60
2022-12-24T12:36:09.600Z,4.88
2022-12-24T12:38:37.772Z,5.15
2022-12-24T12:41:17.860Z,5.68
2022-12-24T12:44:21.083Z,6.32
2022-12-24T12:46:56.787Z,5.45
2022-12-24T12:49:37.212Z,6.80
2022-12-24T12:52:13.612Z,5.90
2022-12-24T12:55:04.810Z,6.22
2022-12-24T12:57:37.034Z,5.32
2022-12-24T13:00:08.794Z,5.88
2022-12-24T13:02:57.633Z,5.90
2022-12-24T13:06:07.978Z,4.93
2022-12-24T13:09:09.142Z,4.80
2022-12-24T13:12:08.828Z,4.70
2022-12-24T13:14:57.879Z,3.80
2022-12-24T13:17:42.413Z,4.83
2022-12-24T13:20:19.778Z,4.57
2022-12-24T13:22:58.447Z,4.05
2022-12-24T13:25:37.631Z,4.05
2022-12-24T13:28:34.825Z,4.38
2022-12-24T13:31:31.519Z,3.95
2022-12-24T13:34:34.698Z,4.28
2022-12-24T13:37:20.099Z,3.38
2022-12-24T13:40:16.806Z,3.85
2022-12-24T13:42:50.000Z,4.03
2022-12-24T13:45:48.239Z,5.45
2022-12-24T13:48:30.132Z,5.13
2022-12-24T13:51:00.669Z,4.80
2022-12-24T13:53:33.131Z,4.32
2022-12-24T13:56:07.673Z,5.15
2022-12-24T13:58:37.741Z,4.25
2022-12-24T14:01:09.560Z,3.78
2022-12-24T14:03:43.319Z,4.40
2022-12-24T14:06:15.147Z,4.13
2022-12-24T14:08:47.449Z,5.13
2022-12-24T14:11:20.291Z,4.38
2022-12-24T14:13:55.980Z,5.05
2022-12-24T14:16:25.860Z,4.95
2022-12-24T14:21:32.305Z,4.55
2022-12-24T14:24:04.929Z,5.40
2022-12-24T14:26:37.435Z,4.30
2022-12-24T14:29:08.268Z,4.30
2022-12-24T14:31:36.451Z,4.72
2022-12-24T14:34:09.507Z,4.30
2022-12-24T14:36:38.140Z,4.22
2022-12-24T14:39:10.054Z,3.88
2022-12-24T14:41:49.299Z,4.47
2022-12-24T14:44:30.874Z,4.13
2022-12-24T14:47:15.413Z,4.40
2022-12-24T14:53:03.344Z,3.72
2022-12-24T14:55:36.433Z,4.38
2022-12-24T14:58:32.969Z,3.45
2022-12-24T15:01:03.190Z,4.13
2022-12-24T15:03:33.084Z,3.90
2022-12-24T15:11:05.131Z,3.63
2022-12-24T15:13:39.173Z,4.10
2022-12-24T15:16:11.192Z,3.20
2022-12-24T15:18:44.210Z,4.43
2022-12-24T15:21:19.933Z,3.17
2022-12-24T15:23:50.973Z,4.10
2022-12-24T15:26:26.013Z,3.53
2022-12-24T15:29:03.311Z,3.63
2022-12-24T15:31:32.799Z,3.17
2022-12-24T15:34:01.530Z,3.25
2022-12-24T15:36:32.777Z,3.05
2022-12-24T15:39:03.983Z,2.88
2022-12-24T15:41:59.348Z,3.33
2022-12-24T15:44:29.748Z,3.97
2022-12-24T15:47:01.011Z,4.03
2022-12-24T15:49:30.805Z,4.55
2022-12-24T15:52:04.943Z,4.15
2022-12-24T15:54:33.538Z,4.32
2022-12-24T15:57:12.746Z,4.68
2022-12-24T15:59:42.881Z,4.80
2022-12-24T16:02:38.381Z,4.75
2022-12-24T16:05:33.205Z,4.25
2022-12-24T16:08:10.342Z,4.35
2022-12-24T16:10:41.416Z,3.88
2022-12-24T16:13:18.935Z,4.40
2022-12-24T16:15:53.562Z,4.35
2022-12-24T16:18:26.470Z,4.40
2022-12-24T16:20:56.951Z,4.70
2022-12-24T16:23:33.981Z,4.88
2022-12-24T16:26:04.140Z,4.10
2022-12-24T16:28:34.120Z,4.18
2022-12-24T16:33:31.814Z,4.30
2022-12-24T16:36:01.630Z,4.55
2022-12-24T16:41:17.768Z,4.80
2022-12-24T16:43:50.767Z,4.68
2022-12-24T16:46:20.574Z,3.92
2022-12-24T16:48:50.136Z,4.45
2022-12-24T16:51:18.219Z,4.68
2022-12-24T16:53:46.305Z,4.47
2022-12-24T16:56:15.766Z,4.05
2022-12-24T16:58:44.877Z,4.53
2022-12-24T17:01:13.192Z,4.47
2022-12-24T17:03:42.881Z,4.45
2022-12-24T17:06:11.106Z,4.85
2022-12-24T17:08:40.157Z,4.25
2022-12-24T17:11:08.369Z,5.00
2022-12-24T17:13:36.534Z,4.43
2022-12-24T17:16:04.883Z,4.28
2022-12-24T17:18:33.096Z,5.40
2022-12-24T17:21:04.198Z,4.00
2022-12-24T17:23:32.341Z,4.60
2022-12-24T17:26:00.467Z,4.32
2022-12-24T17:28:28.611Z,4.25
2022-12-24T17:30:58.628Z,4.70
2022-12-24T17:33:26.828Z,5.22
2022-12-24T17:35:54.917Z,4.82
2022-12-24T17:38:24.411Z,6.68
2022-12-24T17:40:52.596Z,7.15
2022-12-24T17:43:20.929Z,6.47
2022-12-24T17:45:49.010Z,5.47
2022-12-24T17:48:17.612Z,5.60
2022-12-24T17:50:46.072Z,5.35
2022-12-24T17:53:14.304Z,5.97
2022-12-24T17:55:44.854Z,5.32
2022-12-24T17:58:15.156Z,4.68
2022-12-24T18:00:44.167Z,4.50
2022-12-24T18:03:14.950Z,5.03
2022-12-24T18:05:43.874Z,4.90
2022-12-24T18:08:12.028Z,4.95
2022-12-24T18:10:41.172Z,4.70
2022-12-24T18:13:17.334Z,4.53
2022-12-24T18:15:47.626Z,4.60
2022-12-24T18:18:16.082Z,5.95
2022-12-24T18:20:46.897Z,5.75
2022-12-24T18:23:15.313Z,5.75
2022-12-24T18:25:43.392Z,4.60
2022-12-24T18:28:12.955Z,5.97
2022-12-24T18:30:41.059Z,5.00
2022-12-24T18:33:09.182Z,5.03
2022-12-24T18:35:37.379Z,5.10
2022-12-24T18:38:05.822Z,5.25
2022-12-24T18:40:37.100Z,5.10
2022-12-24T18:43:05.216Z,4.60
2022-12-24T18:45:35.555Z,4.43
2022-12-24T18:48:03.753Z,4.65
2022-12-24T18:50:31.837Z,4.40
2022-12-24T18:52:59.952Z,4.93
2022-12-24T18:55:28.467Z,4.55
2022-12-24T18:57:56.631Z,4.80
2022-12-24T19:00:25.151Z,4.20
2022-12-24T19:02:54.806Z,4.05
2022-12-24T19:05:23.173Z,4.50
2022-12-24T19:07:51.420Z,4.95
2022-12-24T19:10:19.714Z,4.03
2022-12-24T19:12:47.832Z,4.57
2022-12-24T19:15:16.659Z,4.65
2022-12-24T19:17:45.103Z,3.90
2022-12-24T19:20:15.083Z,3.88
2022-12-24T19:25:11.425Z,3.53
2022-12-24T19:27:39.508Z,3.97
2022-12-24T19:30:08.959Z,3.78
2022-12-24T19:32:37.045Z,3.90
2022-12-24T19:35:05.574Z,3.95
2022-12-24T19:37:35.029Z,3.72
2022-12-24T19:40:03.161Z,3.65
2022-12-24T19:42:31.831Z,3.95
2022-12-24T19:45:01.873Z,3.78
2022-12-24T19:47:30.609Z,4.13
2022-12-24T19:49:58.934Z,4.47
2022-12-24T19:52:27.018Z,4.15
2022-12-24T19:54:56.502Z,4.32
2022-12-24T19:57:24.723Z,4.15
2022-12-24T19:59:52.989Z,3.97
2022-12-24T20:02:21.331Z,5.38
2022-12-24T20:04:51.091Z,5.43
2022-12-24T20:07:19.599Z,4.18
2022-12-24T20:09:47.781Z,4.00
2022-12-24T20:12:17.834Z,4.40
2022-12-24T20:14:46.014Z,3.95
2022-12-24T20:17:14.877Z,3.88
2022-12-24T20:19:43.557Z,3.80
2022-12-24T20:22:12.465Z,4.85
2022-12-24T20:24:40.601Z,4.40
2022-12-24T20:27:09.083Z,4.63
2022-12-24T20:29:39.142Z,6.40
2022-12-24T20:34:36.757Z,6.07
2022-12-24T20:37:04.873Z,5.43
2022-12-24T20:39:33.379Z,5.32
2022-12-24T20:42:02.639Z,4.70
2022-12-24T20:44:30.749Z,5.35
2022-12-24T20:47:00.208Z,5.55
2022-12-24T20:49:28.618Z,5.82
2022-12-24T20:51:56.687Z,4.47
2022-12-24T20:54:24.843Z,4.90
2022-12-24T20:56:58.058Z,5.28
2022-12-24T20:59:27.277Z,5.22
2022-12-24T21:01:55.820Z,4.85
2022-12-24T21:04:29.143Z,4.80
2022-12-24T21:06:57.840Z,4.93
2022-12-24T21:09:26.064Z,4.22
2022-12-24T21:12:12.531Z,4.70
2022-12-24T21:14:40.687Z,4.97
2022-12-24T21:17:15.173Z,4.88
2022-12-24T21:19:45.333Z,4.65
2022-12-24T21:22:13.404Z,4.82
2022-12-24T21:24:41.609Z,4.50
2022-12-24T21:27:09.719Z,4.72
2022-12-24T21:29:37.827Z,4.63
2022-12-24T21:32:05.949Z,4.00
2022-12-24T21:34:34.073Z,4.50
2022-12-24T21:37:03.563Z,4.38
2022-12-24T21:39:31.729Z,4.55
2022-12-24T21:41:59.836Z,4.82
2022-12-24T21:44:28.005Z,4.22
2022-12-24T21:46:56.232Z,4.15
2022-12-24T21:49:41.720Z,4.13
2022-12-24T21:52:11.188Z,4.00
2022-12-24T21:54:38.563Z,3.45
2022-12-24T21:57:26.576Z,4.22
2022-12-24T21:59:56.726Z,8.57
2022-12-24T22:02:28.011Z,6.53
2022-12-24T22:04:56.281Z,6.03
2022-12-24T22:07:45.652Z,6.47
2022-12-24T22:10:32.633Z,5.75
2022-12-24T22:13:03.687Z,5.70
2022-12-24T22:15:32.350Z,5.65
2022-12-24T22:18:00.590Z,6.13
2022-12-24T22:20:28.931Z,5.47
2022-12-24T22:22:58.382Z,5.78
2022-12-24T22:25:26.522Z,5.15
2022-12-24T22:27:54.601Z,5.40
2022-12-24T22:30:22.902Z,5.13
2022-12-24T22:32:51.808Z,5.25
2022-12-24T22:35:20.258Z,5.78
2022-12-24T22:37:48.361Z,5.00
2022-12-24T22:40:17.988Z,5.78
2022-12-24T22:42:46.091Z,5.47
2022-12-24T22:45:21.876Z,4.78
2022-12-24T22:47:50.482Z,5.38
2022-12-24T22:50:18.791Z,5.13
2022-12-24T22:52:46.898Z,4.95
2022-12-24T22:55:15.731Z,4.82
2022-12-24T22:57:46.237Z,4.47
2022-12-24T23:00:18.101Z,4.85
2022-12-24T23:02:46.320Z,5.05
2022-12-24T23:05:16.489Z,4.82
2022-12-24T23:07:44.638Z,4.97
2022-12-24T23:10:12.734Z,4.68
2022-12-24T23:12:58.162Z,4.93
2022-12-24T23:15:27.650Z,4.53
2022-12-24T23:17:55.752Z,4.50
2022-12-24T23:20:23.849Z,4.82
2022-12-24T23:22:51.969Z,4.68
2022-12-24T23:25:20.510Z,4.57
2022-12-24T23:27:48.608Z,3.80
2022-12-24T23:30:16.822Z,4.32
2022-12-24T23:32:46.442Z,4.13
2022-12-24T23:35:14.586Z,4.80
2022-12-24T23:37:42.694Z,4.15
2022-12-24T23:40:11.726Z,4.47
2022-12-24T23:42:39.864Z,4.22
2022-12-24T23:45:08.833Z,4.63
2022-12-24T23:47:37.220Z,4.13
2022-12-24T23:50:08.033Z,4.45
2022-12-24T23:52:36.143Z,3.67
2022-12-24T23:55:04.432Z,3.92
2022-12-24T23:57:32.545Z,3.92
